createdAt,value
2023-05-10T00:01:46.449Z,9.30
2023-05-10T00:04:15.503Z,10.13
2023-05-10T00:06:42.057Z,10.52
2023-05-10T00:09:11.064Z,10.23
2023-05-10T00:11:39.935Z,10.10
2023-05-10T00:14:08.761Z,11.02
2023-05-10T00:16:37.967Z,9.85
2023-05-10T00:19:04.474Z,10.00
2023-05-10T00:21:31.028Z,10.43
2023-05-10T00:24:05.010Z,10.07
2023-05-10T00:26:34.092Z,9.63
2023-05-10T00:29:02.963Z,9.55
2023-05-10T00:31:31.960Z,10.40
2023-05-10T00:34:03.229Z,10.27
2023-05-10T00:36:29.765Z,10.90
2023-05-10T00:38:58.498Z,10.68
2023-05-10T00:41:24.935Z,12.02
2023-05-10T00:43:56.354Z,12.50
2023-05-10T00:46:23.145Z,12.55
2023-05-10T00:48:51.253Z,13.65
2023-05-10T00:51:17.999Z,13.50
2023-05-10T00:53:46.597Z,15.52
2023-05-10T00:56:13.982Z,17.00
2023-05-10T00:58:43.377Z,20.00
2023-05-10T01:01:10.825Z,19.65
2023-05-10T01:03:40.765Z,20.42
2023-05-10T01:06:11.028Z,21.17
2023-05-10T01:08:37.969Z,23.15
2023-05-10T01:11:06.832Z,22.90
2023-05-10T01:13:39.111Z,24.38
2023-05-10T01:16:07.444Z,24.73
2023-05-10T01:18:41.311Z,24.10
2023-05-10T01:21:35.179Z,24.33
2023-05-10T01:24:35.567Z,24.38
2023-05-10T01:27:40.774Z,24.13
2023-05-10T01:30:16.491Z,23.70
2023-05-10T01:32:55.236Z,24.30
2023-05-10T01:35:40.538Z,24.10
2023-05-10T01:38:19.425Z,24.45
2023-05-10T01:40:58.106Z,23.02
2023-05-10T01:43:32.252Z,23.00
2023-05-10T01:46:12.000Z,23.77
2023-05-10T01:48:47.944Z,24.20
2023-05-10T01:51:22.797Z,24.40
2023-05-10T01:53:51.208Z,22.70
2023-05-10T01:56:23.584Z,22.95
2023-05-10T01:58:54.640Z,23.58
2023-05-10T02:01:25.637Z,23.95
2023-05-10T02:03:53.013Z,24.55
2023-05-10T02:06:25.410Z,24.80
2023-05-10T02:08:56.788Z,23.45
2023-05-10T02:11:26.468Z,23.05
2023-05-10T02:13:56.098Z,24.17
2023-05-10T02:16:27.414Z,22.65
2023-05-10T02:18:55.721Z,22.40
2023-05-10T02:21:25.876Z,23.35
2023-05-10T02:23:56.152Z,23.10
2023-05-10T02:26:27.237Z,22.55
2023-05-10T02:28:58.175Z,22.67
2023-05-10T02:31:29.392Z,23.52
2023-05-10T02:33:57.889Z,23.17
2023-05-10T02:36:25.706Z,22.52
2023-05-10T02:38:53.755Z,22.52
2023-05-10T02:43:55.948Z,21.58
2023-05-10T02:46:22.599Z,22.70
2023-05-10T02:48:49.154Z,24.90
2023-05-10T02:51:18.972Z,24.85
2023-05-10T02:53:50.255Z,25.13
2023-05-10T02:56:32.741Z,23.25
2023-05-10T02:59:01.940Z,24.50
2023-05-10T03:01:31.202Z,24.52
2023-05-10T03:04:00.171Z,23.90
2023-05-10T03:06:26.757Z,24.13
2023-05-10T03:08:55.521Z,25.88
2023-05-10T03:11:33.180Z,24.60
2023-05-10T03:14:22.278Z,23.92
2023-05-10T03:16:57.819Z,27.42
2023-05-10T03:19:51.872Z,27.98
2023-05-10T03:22:25.801Z,27.77
2023-05-10T03:24:58.019Z,27.35
2023-05-10T03:27:28.712Z,29.55
2023-05-10T03:30:01.479Z,29.83
2023-05-10T03:32:30.392Z,30.90
2023-05-10T03:34:56.982Z,28.33
2023-05-10T03:37:23.459Z,31.02
2023-05-10T03:39:52.280Z,29.17
2023-05-10T03:42:18.933Z,28.15
2023-05-10T03:44:50.148Z,30.45
2023-05-10T03:47:16.670Z,28.35
2023-05-10T03:49:45.419Z,29.75
2023-05-10T03:52:11.931Z,28.77
2023-05-10T03:54:38.569Z,28.17
2023-05-10T03:57:05.544Z,29.23
2023-05-10T03:59:32.084Z,29.92
2023-05-10T04:02:03.836Z,29.27
2023-05-10T04:04:30.519Z,29.75
2023-05-10T04:06:57.044Z,29.98
2023-05-10T04:09:23.528Z,30.25
2023-05-10T04:11:50.015Z,30.80
2023-05-10T04:14:19.006Z,29.77
2023-05-10T04:16:47.816Z,30.52
2023-05-10T04:19:16.642Z,28.13
2023-05-10T04:21:45.502Z,28.83
2023-05-10T04:24:13.384Z,28.20
2023-05-10T04:29:06.564Z,25.02
2023-05-10T04:31:37.371Z,27.05
2023-05-10T04:34:06.454Z,27.25
2023-05-10T04:36:36.774Z,26.67
2023-05-10T04:39:05.816Z,26.88
2023-05-10T04:41:34.710Z,26.75
2023-05-10T04:44:01.199Z,26.55
2023-05-10T04:46:29.760Z,26.17
2023-05-10T04:48:56.232Z,26.17
2023-05-10T04:51:22.690Z,27.17
2023-05-10T04:54:04.690Z,26.88
2023-05-10T04:56:32.806Z,25.35
2023-05-10T04:59:01.369Z,27.00
2023-05-10T05:01:32.905Z,25.92
2023-05-10T05:04:00.293Z,25.92
2023-05-10T05:06:28.198Z,27.60
2023-05-10T05:08:56.966Z,26.55
2023-05-10T05:11:28.312Z,27.45
2023-05-10T05:13:54.848Z,27.35
2023-05-10T05:16:21.381Z,27.48
2023-05-10T05:18:50.012Z,27.05
2023-05-10T05:21:20.514Z,27.88
2023-05-10T05:23:49.531Z,28.38
2023-05-10T05:26:16.137Z,27.58
2023-05-10T05:28:44.968Z,28.30
2023-05-10T05:31:14.896Z,28.45
2023-05-10T05:33:41.530Z,27.42
2023-05-10T05:36:08.171Z,28.30
2023-05-10T05:38:36.843Z,28.17
2023-05-10T05:41:04.014Z,29.13
2023-05-10T05:43:32.634Z,29.13
2023-05-10T05:46:01.949Z,28.70
2023-05-10T05:48:31.446Z,32.50
2023-05-10T05:50:58.269Z,30.15
2023-05-10T05:53:27.798Z,29.52
2023-05-10T05:55:55.068Z,31.73
2023-05-10T05:58:24.275Z,32.30
2023-05-10T06:00:52.055Z,30.67
2023-05-10T06:03:19.280Z,29.63
2023-05-10T06:05:48.165Z,29.13
2023-05-10T06:08:14.801Z,27.92
2023-05-10T06:10:41.280Z,28.85
2023-05-10T06:13:10.262Z,27.55
2023-05-10T06:15:36.839Z,27.08
2023-05-10T06:18:03.513Z,27.58
2023-05-10T06:20:30.097Z,27.77
2023-05-10T06:23:00.825Z,24.65
2023-05-10T06:25:27.378Z,24.42
2023-05-10T06:27:58.259Z,24.08
2023-05-10T06:30:30.376Z,22.08
2023-05-10T06:32:57.532Z,23.73
2023-05-10T06:35:24.230Z,25.87
2023-05-10T06:37:53.218Z,25.50
2023-05-10T06:40:20.204Z,24.15
2023-05-10T06:42:47.648Z,24.58
2023-05-10T06:45:16.062Z,24.77
2023-05-10T06:47:45.651Z,23.50
2023-05-10T06:50:14.540Z,24.90
2023-05-10T06:52:44.220Z,23.40
2023-05-10T06:55:13.451Z,21.92
2023-05-10T06:57:39.960Z,20.50
2023-05-10T07:00:10.596Z,19.77
2023-05-10T07:02:37.246Z,17.92
2023-05-10T07:05:03.966Z,15.70
2023-05-10T07:07:30.797Z,13.73
2023-05-10T07:10:01.941Z,14.18
2023-05-10T07:12:28.657Z,13.30
2023-05-10T07:14:55.176Z,12.65
2023-05-10T07:17:21.801Z,12.50
2023-05-10T07:19:48.321Z,12.40
2023-05-10T07:22:20.307Z,11.55
2023-05-10T07:24:47.235Z,11.75
2023-05-10T07:27:14.091Z,11.10
2023-05-10T07:29:43.194Z,9.52
2023-05-10T07:32:09.974Z,10.35
2023-05-10T07:34:36.579Z,9.02
2023-05-10T07:37:03.194Z,8.32
2023-05-10T07:39:34.483Z,9.35
2023-05-10T07:42:03.965Z,8.73
2023-05-10T07:44:33.023Z,10.23
2023-05-10T07:47:01.735Z,8.90
2023-05-10T07:49:28.250Z,9.30
2023-05-10T07:51:54.781Z,9.40
2023-05-10T07:54:23.686Z,8.40
2023-05-10T07:56:52.610Z,8.82
2023-05-10T07:59:19.195Z,9.50
2023-05-10T08:01:46.109Z,8.55
2023-05-10T08:04:12.923Z,9.38
2023-05-10T08:06:40.485Z,10.13
2023-05-10T08:09:09.682Z,10.35
2023-05-10T08:11:41.079Z,9.48
2023-05-10T08:14:07.607Z,11.40
2023-05-10T08:16:34.191Z,10.82
2023-05-10T08:19:03.384Z,9.65
2023-05-10T08:21:30.183Z,9.48
2023-05-10T08:23:56.742Z,9.90
2023-05-10T08:26:25.812Z,9.20
2023-05-10T08:28:54.462Z,9.35
2023-05-10T08:31:20.973Z,9.15
2023-05-10T08:33:52.630Z,7.72
2023-05-10T08:36:22.713Z,8.05
2023-05-10T08:38:54.337Z,8.32
2023-05-10T08:41:25.555Z,8.27
2023-05-10T08:43:53.010Z,9.52
2023-05-10T08:46:24.392Z,9.38
2023-05-10T08:48:55.253Z,9.55
2023-05-10T08:51:28.237Z,9.52
2023-05-10T08:53:57.495Z,9.18
2023-05-10T08:56:25.075Z,9.60
2023-05-10T08:58:54.446Z,9.82
2023-05-10T09:01:22.420Z,9.77
2023-05-10T09:03:49.616Z,9.25
2023-05-10T09:06:18.813Z,9.47
2023-05-10T09:08:49.021Z,10.48
2023-05-10T09:11:18.281Z,10.05
2023-05-10T09:13:45.589Z,9.82
2023-05-10T09:16:21.005Z,8.80
2023-05-10T09:18:50.413Z,9.27
2023-05-10T09:21:18.603Z,9.10
2023-05-10T09:23:48.657Z,8.50
2023-05-10T09:26:18.478Z,8.80
2023-05-10T09:28:59.351Z,7.18
2023-05-10T09:31:43.696Z,7.85
2023-05-10T09:34:12.604Z,7.20
2023-05-10T09:36:51.934Z,6.95
2023-05-10T09:39:19.165Z,6.85
2023-05-10T09:41:47.965Z,7.22
2023-05-10T09:44:20.607Z,7.07
2023-05-10T09:46:53.669Z,6.63
2023-05-10T09:49:21.921Z,5.97
2023-05-10T09:51:48.664Z,5.32
2023-05-10T09:54:22.028Z,5.82
2023-05-10T09:56:48.460Z,5.40
2023-05-10T09:59:18.032Z,4.53
2023-05-10T10:01:50.903Z,5.10
2023-05-10T10:04:18.119Z,4.07
2023-05-10T10:06:44.922Z,4.70
2023-05-10T10:09:11.694Z,4.38
2023-05-10T10:11:42.337Z,3.97
2023-05-10T10:14:12.443Z,3.50
2023-05-10T10:16:51.633Z,3.42
2023-05-10T10:19:30.243Z,3.35
2023-05-10T10:21:56.844Z,3.33
2023-05-10T10:24:23.434Z,3.50
2023-05-10T10:26:55.654Z,3.17
2023-05-10T10:29:37.089Z,3.38
2023-05-10T10:32:27.911Z,3.00
2023-05-10T10:34:55.892Z,3.80
2023-05-10T10:37:22.563Z,3.92
2023-05-10T10:39:50.718Z,4.10
2023-05-10T10:42:47.200Z,4.43
2023-05-10T10:45:14.631Z,4.90
2023-05-10T10:47:41.481Z,4.88
2023-05-10T10:50:13.818Z,4.85
2023-05-10T10:52:46.581Z,4.53
2023-05-10T10:55:19.939Z,4.75
2023-05-10T10:58:01.682Z,5.15
2023-05-10T11:00:35.841Z,5.32
2023-05-10T11:03:19.772Z,5.55
2023-05-10T11:05:52.065Z,5.03
2023-05-10T11:08:33.392Z,5.38
2023-05-10T11:11:00.487Z,5.40
2023-05-10T11:13:47.233Z,5.53
2023-05-10T11:16:26.344Z,6.43
2023-05-10T11:19:02.452Z,6.05
2023-05-10T11:21:34.781Z,6.18
2023-05-10T11:24:07.205Z,5.38
2023-05-10T11:26:36.475Z,5.15
2023-05-10T11:29:06.041Z,4.85
2023-05-10T11:31:34.945Z,3.90
2023-05-10T11:34:05.341Z,4.05
2023-05-10T11:36:36.735Z,4.10
2023-05-10T11:39:06.683Z,4.03
2023-05-10T11:41:33.520Z,4.05
2023-05-10T11:44:05.079Z,4.35
2023-05-10T11:46:31.841Z,5.13
2023-05-10T11:49:05.709Z,4.85
2023-05-10T11:51:35.435Z,5.30
2023-05-10T11:54:01.986Z,4.88
2023-05-10T11:56:28.504Z,4.80
2023-05-10T11:58:58.758Z,4.88
2023-05-10T12:01:29.219Z,3.97
2023-05-10T12:04:01.391Z,4.57
2023-05-10T12:06:33.321Z,4.45
2023-05-10T12:09:06.896Z,4.25
2023-05-10T12:11:33.499Z,4.40
2023-05-10T12:14:00.014Z,4.50
2023-05-10T12:16:30.506Z,4.05
2023-05-10T12:19:00.850Z,4.25
2023-05-10T12:21:32.470Z,4.35
2023-05-10T12:24:07.600Z,3.67
2023-05-10T12:26:36.275Z,3.70
2023-05-10T12:29:23.765Z,3.80
2023-05-10T12:34:37.278Z,2.83
2023-05-10T12:37:04.935Z,3.00
2023-05-10T12:39:44.118Z,3.17
2023-05-10T12:42:11.555Z,2.80
2023-05-10T12:44:38.132Z,2.63
2023-05-10T12:47:04.769Z,2.30
2023-05-10T12:49:33.749Z,2.97
2023-05-10T12:52:02.680Z,1.83
2023-05-10T12:54:29.206Z,1.85
2023-05-10T12:56:55.917Z,2.20
2023-05-10T12:59:22.400Z,2.65
2023-05-10T13:01:48.906Z,1.90
2023-05-10T13:04:17.844Z,2.05
2023-05-10T13:06:44.553Z,3.03
2023-05-10T13:09:11.050Z,2.15
2023-05-10T13:11:42.489Z,2.20
2023-05-10T13:14:08.998Z,2.15
2023-05-10T13:16:37.988Z,1.75
2023-05-10T13:19:06.971Z,2.50
2023-05-10T13:21:33.542Z,2.75
2023-05-10T13:24:01.302Z,2.40
2023-05-10T13:28:56.584Z,2.40
2023-05-10T13:31:23.088Z,2.00
2023-05-10T13:33:51.820Z,3.20
2023-05-10T13:36:18.289Z,3.92
2023-05-10T13:38:44.886Z,4.75
2023-05-10T13:41:11.558Z,4.28
2023-05-10T13:43:38.061Z,5.20
2023-05-10T13:46:04.680Z,4.57
2023-05-10T13:48:31.145Z,4.78
2023-05-10T13:51:00.152Z,4.50
2023-05-10T13:53:26.786Z,4.35
2023-05-10T13:55:55.741Z,3.30
2023-05-10T13:58:22.235Z,3.40
2023-05-10T14:00:53.584Z,3.67
2023-05-10T14:03:22.408Z,3.85
2023-05-10T14:05:51.360Z,3.78
2023-05-10T14:08:20.084Z,4.22
2023-05-10T14:10:53.167Z,3.63
2023-05-10T14:13:24.714Z,3.97
2023-05-10T14:15:51.680Z,3.90
2023-05-10T14:18:20.524Z,3.93
2023-05-10T14:20:50.276Z,4.05
2023-05-10T14:23:20.638Z,4.20
2023-05-10T14:25:47.098Z,4.13
2023-05-10T14:28:13.640Z,4.15
2023-05-10T14:30:44.933Z,3.53
2023-05-10T14:33:14.289Z,3.90
2023-05-10T14:35:43.403Z,4.03
2023-05-10T14:38:12.145Z,4.32
2023-05-10T14:40:38.646Z,4.13
2023-05-10T14:43:07.524Z,4.15
2023-05-10T14:45:39.016Z,4.13
2023-05-10T14:48:05.882Z,4.80
2023-05-10T14:50:40.497Z,4.82
2023-05-10T14:53:07.082Z,4.70
2023-05-10T14:55:33.817Z,5.18
2023-05-10T14:58:02.739Z,4.85
2023-05-10T15:00:30.443Z,5.45
2023-05-10T15:03:00.558Z,5.78
2023-05-10T15:05:31.966Z,5.70
2023-05-10T15:07:59.137Z,5.28
2023-05-10T15:10:26.255Z,5.70
2023-05-10T15:12:52.835Z,5.80
2023-05-10T15:15:22.132Z,5.68
2023-05-10T15:17:51.539Z,6.07
2023-05-10T15:20:20.377Z,5.78
2023-05-10T15:22:49.397Z,5.80
2023-05-10T15:25:17.201Z,6.32
2023-05-10T15:27:44.654Z,5.97
2023-05-10T15:30:11.805Z,5.97
2023-05-10T15:32:40.500Z,6.33
2023-05-10T15:35:12.356Z,6.78
2023-05-10T15:37:39.041Z,6.70
2023-05-10T15:40:06.229Z,7.25
2023-05-10T15:42:32.979Z,6.82
2023-05-10T15:45:01.961Z,5.90
2023-05-10T15:47:30.559Z,5.78
2023-05-10T15:50:01.837Z,6.13
2023-05-10T15:52:36.080Z,8.13
2023-05-10T15:55:03.539Z,8.60
2023-05-10T15:57:33.665Z,9.82
2023-05-10T16:00:01.553Z,7.18
2023-05-10T16:02:33.426Z,6.80
2023-05-10T16:05:05.034Z,6.53
2023-05-10T16:07:31.529Z,6.40
2023-05-10T16:10:02.053Z,6.85
2023-05-10T16:12:31.436Z,5.85
2023-05-10T16:14:58.122Z,6.28
2023-05-10T16:17:24.870Z,6.28
2023-05-10T16:19:54.044Z,5.68
2023-05-10T16:22:22.489Z,6.40
2023-05-10T16:24:49.128Z,5.07
2023-05-10T16:27:18.637Z,6.03
2023-05-10T16:29:47.923Z,6.00
2023-05-10T16:32:14.541Z,6.20
2023-05-10T16:34:41.048Z,6.40
2023-05-10T16:37:07.538Z,5.63
2023-05-10T16:39:38.832Z,5.60
2023-05-10T16:42:10.094Z,5.57
2023-05-10T16:44:36.847Z,6.13
2023-05-10T16:47:03.562Z,5.55
2023-05-10T16:49:32.409Z,5.40
2023-05-10T16:51:59.875Z,5.00
2023-05-10T16:54:26.404Z,5.55
2023-05-10T16:56:55.440Z,5.13
2023-05-10T16:59:24.521Z,5.20
2023-05-10T17:01:53.160Z,5.28
2023-05-10T17:04:19.939Z,5.47
2023-05-10T17:06:48.860Z,5.13
2023-05-10T17:09:15.840Z,5.22
2023-05-10T17:11:44.693Z,5.03
2023-05-10T17:14:11.231Z,5.28
2023-05-10T17:16:42.595Z,5.55
2023-05-10T17:19:09.582Z,5.13
2023-05-10T17:21:36.242Z,5.63
2023-05-10T17:24:05.012Z,5.47
2023-05-10T17:26:34.598Z,5.72
2023-05-10T17:29:03.373Z,5.32
2023-05-10T17:31:32.826Z,4.93
2023-05-10T17:34:04.717Z,5.22
2023-05-10T17:36:32.488Z,5.93
2023-05-10T17:39:09.431Z,5.40
2023-05-10T17:41:38.362Z,6.10
2023-05-10T17:44:04.897Z,5.57
2023-05-10T17:46:31.388Z,6.40
2023-05-10T17:49:00.332Z,5.60
2023-05-10T17:51:27.070Z,6.32
2023-05-10T17:53:53.671Z,6.57
2023-05-10T17:56:22.572Z,5.78
2023-05-10T17:58:54.014Z,5.97
2023-05-10T18:01:22.854Z,5.95
2023-05-10T18:03:49.923Z,5.78
2023-05-10T18:06:21.362Z,5.63
2023-05-10T18:08:50.162Z,5.20
2023-05-10T18:11:16.701Z,5.20
2023-05-10T18:13:43.222Z,5.65
2023-05-10T18:16:13.397Z,5.93
2023-05-10T18:18:40.017Z,6.93
2023-05-10T18:21:06.686Z,7.85
2023-05-10T18:23:35.742Z,7.68
2023-05-10T18:26:02.433Z,10.35
2023-05-10T18:28:28.918Z,7.45
2023-05-10T18:30:58.225Z,6.53
2023-05-10T18:33:27.106Z,7.32
2023-05-10T18:35:53.741Z,6.90
2023-05-10T18:38:22.893Z,7.45
2023-05-10T18:40:51.908Z,8.77
2023-05-10T18:43:28.675Z,8.60
2023-05-10T18:45:55.223Z,7.70
2023-05-10T18:48:21.708Z,9.23
2023-05-10T18:50:48.495Z,9.10
2023-05-10T18:53:17.324Z,8.68
2023-05-10T18:55:44.840Z,8.73
2023-05-10T18:58:11.398Z,8.70
2023-05-10T19:00:38.143Z,8.80
2023-05-10T19:03:04.792Z,9.07
2023-05-10T19:05:31.659Z,8.90
2023-05-10T19:07:58.298Z,9.80
2023-05-10T19:10:24.802Z,8.73
2023-05-10T19:12:53.582Z,8.95
2023-05-10T19:15:21.677Z,10.20
2023-05-10T19:17:52.568Z,9.80
2023-05-10T19:20:24.154Z,8.30
2023-05-10T19:23:08.280Z,8.80
2023-05-10T19:25:36.101Z,9.35
2023-05-10T19:28:05.147Z,8.90
2023-05-10T19:30:34.229Z,8.70
2023-05-10T19:33:05.407Z,8.18
2023-05-10T19:35:34.527Z,9.65
2023-05-10T19:38:03.433Z,9.23
2023-05-10T19:40:29.999Z,9.43
2023-05-10T19:43:00.398Z,8.77
2023-05-10T19:45:29.293Z,9.70
2023-05-10T19:47:56.350Z,8.98
2023-05-10T19:50:22.897Z,9.13
2023-05-10T19:52:49.513Z,9.55
2023-05-10T19:55:27.901Z,8.68
2023-05-10T19:57:56.731Z,9.73
2023-05-10T20:00:28.107Z,9.85
2023-05-10T20:02:57.893Z,9.07
2023-05-10T20:05:26.820Z,8.43
2023-05-10T20:07:53.377Z,8.77
2023-05-10T20:10:20.151Z,8.60
2023-05-10T20:12:52.243Z,8.18
2023-05-10T20:15:21.206Z,9.25
2023-05-10T20:17:50.962Z,8.85
2023-05-10T20:20:18.000Z,8.63
2023-05-10T20:22:47.615Z,8.45
2023-05-10T20:25:15.240Z,8.80
2023-05-10T20:27:44.480Z,8.98
2023-05-10T20:30:11.908Z,8.77
2023-05-10T20:32:39.099Z,8.90
2023-05-10T20:35:08.603Z,8.98
2023-05-10T20:37:35.375Z,8.35
2023-05-10T20:40:01.975Z,8.07
2023-05-10T20:42:31.082Z,7.78
2023-05-10T20:45:03.332Z,8.13
2023-05-10T20:47:29.904Z,7.55
2023-05-10T20:49:56.447Z,6.93
2023-05-10T20:52:25.308Z,6.75
2023-05-10T20:54:52.052Z,6.68
2023-05-10T20:57:21.077Z,6.35
2023-05-10T20:59:49.717Z,6.95
2023-05-10T21:02:18.722Z,7.05
2023-05-10T21:04:45.349Z,7.07
2023-05-10T21:07:12.225Z,7.63
2023-05-10T21:09:38.694Z,6.55
2023-05-10T21:12:05.727Z,6.63
2023-05-10T21:14:35.223Z,7.87
2023-05-10T21:17:06.229Z,7.43
2023-05-10T21:19:32.806Z,7.45
2023-05-10T21:22:01.933Z,8.68
2023-05-10T21:24:35.064Z,7.75
2023-05-10T21:27:04.709Z,8.73
2023-05-10T21:29:33.473Z,8.52
2023-05-10T21:32:00.143Z,8.57
2023-05-10T21:34:29.160Z,8.85
2023-05-10T21:36:55.716Z,8.45
2023-05-10T21:39:24.520Z,8.85
2023-05-10T21:41:51.133Z,8.43
2023-05-10T21:44:17.554Z,8.90
2023-05-10T21:46:46.539Z,8.50
2023-05-10T21:49:15.303Z,8.85
2023-05-10T21:51:41.903Z,8.98
2023-05-10T21:54:11.066Z,8.57
2023-05-10T21:56:37.653Z,8.40
2023-05-10T21:59:06.876Z,8.82
2023-05-10T22:01:35.722Z,8.50
2023-05-10T22:04:04.495Z,9.00
2023-05-10T22:09:35.049Z,9.27
2023-05-10T22:12:06.344Z,9.40
2023-05-10T22:14:32.892Z,8.50
2023-05-10T22:17:01.702Z,7.65
2023-05-10T22:19:28.300Z,7.53
2023-05-10T22:21:54.867Z,8.02
2023-05-10T22:24:21.515Z,7.95
2023-05-10T22:26:47.997Z,8.48
2023-05-10T22:29:14.557Z,8.00
2023-05-10T22:31:41.401Z,7.78
2023-05-10T22:34:10.462Z,7.80
2023-05-10T22:36:37.280Z,8.38
2023-05-10T22:39:06.363Z,8.40
2023-05-10T22:41:34.256Z,8.20
2023-05-10T22:46:32.267Z,7.97
2023-05-10T22:49:01.168Z,8.40
2023-05-10T22:51:28.018Z,8.55
2023-05-10T22:53:54.503Z,8.35
2023-05-10T22:56:24.346Z,9.48
2023-05-10T22:58:51.172Z,8.95
2023-05-10T23:01:17.705Z,9.30
2023-05-10T23:03:44.208Z,9.38
2023-05-10T23:06:10.720Z,9.20
2023-05-10T23:08:39.718Z,9.27
2023-05-10T23:11:06.225Z,9.07
2023-05-10T23:13:32.851Z,9.77
2023-05-10T23:16:07.837Z,9.52
2023-05-10T23:18:39.674Z,9.60
2023-05-10T23:21:06.224Z,11.10
2023-05-10T23:23:34.153Z,9.57
2023-05-10T23:28:33.489Z,8.90
2023-05-10T23:31:00.018Z,9.00
2023-05-10T23:33:29.049Z,9.05
2023-05-10T23:35:57.811Z,8.23
2023-05-10T23:38:29.188Z,8.52
2023-05-10T23:40:55.705Z,8.70
2023-05-10T23:43:22.289Z,9.43
2023-05-10T23:45:55.993Z,9.00
2023-05-10T23:48:25.442Z,9.40
2023-05-10T23:50:54.360Z,8.98
2023-05-10T23:53:20.980Z,9.38
2023-05-10T23:55:52.368Z,9.18
2023-05-10T23:58:23.607Z,9.43
